Time;durP1;ratioP1;P1;durP2;ratioP2;P2;SDS_P1;SDS_P2;PMS_P1;PMS_P2;Temp;Humidity;BMP_temperature;BMP_pressure;BME280_temperature;BME280_humidity;BME280_pressure;Samples;Min_cycle;Max_cycle;Signal;HPM_P1;HPM_P2
2022/11/04 00:00:23;;;;;;;;;3.50;2.00;;;;;12.04;62.05;99919.13;4937357;28;45255;-63
2022/11/04 00:02:48;;;;;;;;;4.00;1.75;;;;;12.02;61.84;99928.84;4939056;28;46052;-65
2022/11/04 00:05:13;;;;;;;;;4.00;2.50;;;;;12.01;62.07;99924.50;4938376;28;45399;-68
2022/11/04 00:12:23;;;;;;;;;1.50;1.00;;;;;12.09;62.10;99926.88;4935156;28;45488;-62
2022/11/04 00:13:08;;;;;;;;;2.00;2.00;;;;;12.11;62.03;99915.41;4937935;28;45461;-67
2022/11/04 00:18:21;;;;;;;;;2.00;1.00;;;;;12.08;62.08;99902.31;4935826;28;45511;-67
2022/11/04 00:28:58;;;;;;;;;4.75;1.75;;;;;12.09;61.88;99884.72;4934919;28;45739;-65
2022/11/04 00:34:07;;;;;;;;;4.25;2.25;;;;;12.09;62.12;99882.97;4940801;28;45449;-64
2022/11/04 00:36:33;;;;;;;;;5.50;2.00;;;;;12.17;62.03;99880.06;4941379;28;45716;-63
2022/11/04 00:38:58;;;;;;;;;3.00;1.50;;;;;12.14;61.98;99878.41;4941096;28;45656;-63
2022/11/04 00:41:27;;;;;;;;;4.50;2.25;;;;;12.13;61.91;99878.47;4942031;28;45343;-63
2022/11/04 00:44:03;;;;;;;;;3.75;2.50;;;;;12.10;61.64;99873.28;4941999;28;45485;-63
2022/11/04 00:46:31;;;;;;;;;4.00;2.00;;;;;12.12;62.19;99874.94;4941995;28;45234;-63
2022/11/04 00:48:57;;;;;;;;;5.00;1.75;;;;;12.11;62.07;99875.00;4941771;28;45485;-63
2022/11/04 00:51:23;;;;;;;;;4.75;2.50;;;;;12.19;62.16;99875.63;4941874;28;45593;-64
2022/11/04 00:53:49;;;;;;;;;3.25;2.25;;;;;12.16;62.09;99876.59;4941652;28;46316;-64
2022/11/04 00:56:14;;;;;;;;;5.25;1.00;;;;;12.22;62.43;99899.22;4941852;28;45355;-64
2022/11/04 00:58:39;;;;;;;;;3.50;2.00;;;;;12.21;61.68;99881.69;4941094;28;54247;-64
2022/11/04 01:01:09;;;;;;;;;3.00;1.00;;;;;12.22;62.16;99878.13;4941947;28;45310;-65
2022/11/04 01:03:35;;;;;;;;;4.00;1.25;;;;;12.26;61.94;99878.88;4941448;28;46360;-64
2022/11/04 01:06:00;;;;;;;;;2.00;1.00;;;;;12.26;61.76;99869.19;4941533;28;45348;-64
2022/11/04 01:08:26;;;;;;;;;3.50;2.00;;;;;12.27;61.95;99849.84;4941865;28;45219;-64
2022/11/04 01:10:51;;;;;;;;;3.25;2.00;;;;;12.25;61.96;99864.88;4941864;28;45139;-65
2022/11/04 01:13:16;;;;;;;;;4.75;3.00;;;;;12.28;61.93;99854.22;4941305;28;50055;-63
2022/11/04 01:15:42;;;;;;;;;2.00;2.00;;;;;12.24;62.16;99852.63;4941817;28;45413;-64
2022/11/04 01:18:07;;;;;;;;;3.00;1.75;;;;;12.20;62.26;99851.00;4941559;28;45172;-64
2022/11/04 01:20:33;;;;;;;;;1.00;1.00;;;;;12.19;62.37;99846.66;4941724;28;45301;-63
2022/11/04 01:22:58;;;;;;;;;4.00;2.25;;;;;12.16;62.15;99837.09;4945189;28;45279;-64
2022/11/04 01:25:24;;;;;;;;;3.25;1.75;;;;;12.22;62.33;99841.25;4945111;28;45333;-64
2022/11/04 01:27:49;;;;;;;;;3.00;2.00;;;;;12.21;62.23;99839.53;4945087;28;45306;-63
2022/11/04 01:30:14;;;;;;;;;4.75;1.00;;;;;12.25;62.33;99845.56;4944958;28;45568;-65
2022/11/04 01:32:40;;;;;;;;;4.50;2.00;;;;;12.24;62.47;99847.34;4944702;28;45357;-65
2022/11/04 01:35:06;;;;;;;;;3.00;2.00;;;;;12.26;62.16;99855.19;4944623;28;45314;-65
2022/11/04 01:37:31;;;;;;;;;3.00;3.00;;;;;12.28;62.12;99853.38;4944736;28;45272;-65
2022/11/04 01:39:56;;;;;;;;;5.25;3.00;;;;;12.29;62.13;99849.78;4944800;28;45278;-65
2022/11/04 01:42:22;;;;;;;;;4.25;2.25;;;;;12.30;62.16;99856.78;4944570;28;45398;-65
2022/11/04 01:44:59;;;;;;;;;4.00;2.00;;;;;12.30;62.36;99844.50;4944869;28;45380;-65
2022/11/04 01:47:42;;;;;;;;;4.75;1.00;;;;;12.30;62.10;99846.25;4944493;28;45316;-65
2022/11/04 01:50:16;;;;;;;;;3.75;2.00;;;;;12.25;62.34;99835.03;4944370;28;45460;-65
2022/11/04 01:52:49;;;;;;;;;1.25;0.00;;;;;12.26;62.23;99834.97;4944542;28;45318;-65
2022/11/04 01:55:19;;;;;;;;;4.00;2.25;;;;;12.27;62.19;99838.47;4944365;28;45347;-63
2022/11/04 01:57:47;;;;;;;;;2.25;1.00;;;;;12.21;62.05;99823.72;4944532;28;45290;-65
2022/11/04 02:00:13;;;;;;;;;3.00;1.00;;;;;12.26;62.08;99824.41;4944415;28;45598;-63
2022/11/04 02:03:04;;;;;;;;;2.00;1.00;;;;;12.23;62.16;99824.53;4942914;28;47090;-63
2022/11/04 02:05:31;;;;;;;;;1.00;1.00;;;;;12.22;61.97;99811.44;4944209;28;45640;-63
2022/11/04 02:08:00;;;;;;;;;1.00;0.75;;;;;12.23;62.09;99813.16;4944500;28;45263;-64
2022/11/04 02:10:27;;;;;;;;;6.00;2.50;;;;;12.19;62.24;99808.00;4944237;28;45520;-63
2022/11/04 02:12:54;;;;;;;;;2.00;2.00;;;;;12.21;62.17;99801.81;4942872;28;46207;-63
2022/11/04 02:15:50;;;;;;;;;0.00;0.00;;;;;12.18;62.18;99801.00;4944246;28;45215;-64
2022/11/04 02:18:37;;;;;;;;;2.00;0.75;;;;;12.17;61.95;99804.53;4943093;28;45420;-64
2022/11/04 02:21:40;;;;;;;;;2.75;1.50;;;;;12.17;62.16;99803.69;4944074;28;45255;-64
2022/11/04 02:24:39;;;;;;;;;0.25;0.25;;;;;12.21;62.04;99794.75;4944023;28;45236;-64
2022/11/04 02:27:23;;;;;;;;;2.50;1.25;;;;;12.16;62.24;99799.34;4944048;28;45311;-63
2022/11/04 02:30:14;;;;;;;;;1.00;1.00;;;;;12.21;62.16;99812.34;4944168;28;45456;-64
2022/11/04 02:32:42;;;;;;;;;2.00;1.00;;;;;12.21;61.92;99805.28;4942886;28;45230;-64
2022/11/04 02:35:14;;;;;;;;;0.00;0.00;;;;;12.20;62.10;99795.69;4943806;28;45231;-64
2022/11/04 02:37:43;;;;;;;;;2.00;1.00;;;;;12.21;62.05;99804.44;4943736;28;45401;-64
2022/11/04 02:40:47;;;;;;;;;0.00;0.00;;;;;12.21;62.03;99794.75;4944135;28;45377;-64
2022/11/04 02:43:44;;;;;;;;;1.75;1.75;;;;;12.23;62.14;99811.38;4943513;28;45591;-64
2022/11/04 02:46:24;;;;;;;;;2.25;1.50;;;;;12.25;62.11;99796.38;4943836;28;46330;-64
2022/11/04 02:49:06;;;;;;;;;1.00;0.00;;;;;12.26;62.09;99797.22;4943447;28;45331;-64
2022/11/04 02:51:37;;;;;;;;;0.25;0.25;;;;;12.25;61.93;99793.75;4944073;28;45298;-64
2022/11/04 02:54:16;;;;;;;;;3.50;2.00;;;;;12.22;62.04;99785.09;4943601;28;45592;-64
2022/11/04 02:56:46;;;;;;;;;2.00;1.00;;;;;12.26;62.11;99792.81;4943320;28;45449;-64
2022/11/04 02:59:38;;;;;;;;;2.00;2.00;;;;;12.24;62.10;99784.13;4943597;28;45255;-63
2022/11/04 03:02:12;;;;;;;;;6.00;2.00;;;;;12.23;62.13;99782.41;4941157;28;45525;-64
2022/11/04 03:04:43;;;;;;;;;2.00;1.50;;;;;12.23;62.12;99773.66;4943309;28;45362;-64
2022/11/04 03:07:13;;;;;;;;;2.25;1.00;;;;;12.25;61.99;99771.81;4943385;28;46241;-64
2022/11/04 03:09:41;;;;;;;;;1.00;1.00;;;;;12.25;62.24;99774.44;4943327;28;45306;-63
2022/11/04 03:12:13;;;;;;;;;1.00;1.00;;;;;12.26;62.22;99766.47;4943564;28;45303;-63
2022/11/04 03:14:47;;;;;;;;;2.00;1.75;;;;;12.22;62.30;99759.59;4941964;28;45364;-64
2022/11/04 03:17:30;;;;;;;;;1.50;1.50;;;;;12.24;62.33;99756.91;4941969;28;46399;-63
2022/11/04 03:19:58;;;;;;;;;0.75;0.25;;;;;12.27;62.20;99747.13;4941825;28;45358;-63
2022/11/04 03:22:37;;;;;;;;;1.50;0.50;;;;;12.29;61.92;99755.84;4943360;28;45320;-63
2022/11/04 03:25:08;;;;;;;;;3.25;1.00;;;;;12.26;62.08;99755.94;4943304;28;45228;-63
2022/11/04 03:28:03;;;;;;;;;3.50;1.00;;;;;12.27;62.16;99757.66;4942912;28;46297;-64
2022/11/04 03:30:39;;;;;;;;;1.00;1.00;;;;;12.23;62.19;99755.22;4917765;28;45504;-64
2022/11/04 03:33:23;;;;;;;;;2.00;1.00;;;;;12.30;62.21;99751.41;4938608;28;45497;-64
2022/11/04 03:35:48;;;;;;;;;0.25;0.25;;;;;12.32;61.98;99744.31;4939187;28;45259;-64
2022/11/04 03:38:14;;;;;;;;;1.75;1.75;;;;;12.29;62.07;99740.03;4939485;28;45432;-64
2022/11/04 03:40:39;;;;;;;;;1.25;0.00;;;;;12.29;61.98;99736.53;4938650;28;45349;-63
2022/11/04 03:43:21;;;;;;;;;0.00;0.00;;;;;12.29;62.09;99745.31;4938841;28;45370;-64
2022/11/04 03:45:47;;;;;;;;;0.50;0.00;;;;;12.32;61.77;99741.69;4939363;28;45571;-64
2022/11/04 03:48:13;;;;;;;;;1.00;1.00;;;;;12.22;62.06;99735.06;4938445;28;45430;-63
2022/11/04 03:50:42;;;;;;;;;1.25;1.25;;;;;12.26;61.91;99729.59;4938475;28;45485;-63
2022/11/04 03:53:09;;;;;;;;;1.00;0.00;;;;;12.31;61.88;99746.13;4938054;28;45454;-64
2022/11/04 03:55:42;;;;;;;;;0.00;0.00;;;;;12.32;61.71;99736.44;4938642;28;45496;-63
2022/11/04 03:58:23;;;;;;;;;1.00;0.00;;;;;12.31;61.73;99738.22;4936994;28;45283;-63
2022/11/04 04:00:57;;;;;;;;;1.75;0.50;;;;;12.24;62.17;99741.97;4940085;28;45397;-64
2022/11/04 04:03:32;;;;;;;;;1.00;1.00;;;;;12.22;61.91;99749.06;4942066;28;45333;-63
2022/11/04 04:06:08;;;;;;;;;2.00;0.50;;;;;12.16;61.91;99744.91;4941688;28;45436;-63
2022/11/04 04:08:51;;;;;;;;;1.50;1.00;;;;;12.19;62.24;99738.66;4941918;28;45252;-63
2022/11/04 04:11:44;;;;;;;;;0.00;0.00;;;;;12.18;61.97;99752.75;4941620;28;45445;-63
2022/11/04 04:14:38;;;;;;;;;1.00;1.00;;;;;12.15;62.15;99745.81;4940191;28;45318;-64
2022/11/04 04:17:09;;;;;;;;;0.75;0.00;;;;;12.13;61.91;99746.78;4942302;28;45322;-64
2022/11/04 04:19:36;;;;;;;;;3.00;1.00;;;;;12.20;61.88;99750.91;4941957;28;47000;-64
2022/11/04 04:22:09;;;;;;;;;1.00;0.00;;;;;12.22;61.70;99754.34;4942427;28;45345;-64
2022/11/04 04:27:32;;;;;;;;;0.50;0.00;;;;;12.16;61.87;99744.91;4942173;28;45369;-64
2022/11/04 04:30:01;;;;;;;;;0.00;0.00;;;;;12.14;62.11;99737.97;4942232;28;46236;-64
2022/11/04 04:32:28;;;;;;;;;0.50;0.00;;;;;12.13;61.93;99729.19;4942128;28;45315;-64
2022/11/04 04:37:40;;;;;;;;;0.50;0.00;;;;;12.17;61.68;99751.00;4942177;28;45358;-64
2022/11/04 04:45:42;;;;;;;;;2.00;1.00;;;;;12.12;61.82;99766.13;4942119;28;45282;-64
2022/11/04 04:48:11;;;;;;;;;0.50;0.00;;;;;12.13;61.96;99755.53;4941527;28;45314;-64
2022/11/04 04:50:41;;;;;;;;;1.75;0.25;;;;;12.17;61.79;99761.56;4941795;28;46963;-64
2022/11/04 04:53:06;;;;;;;;;1.00;1.00;;;;;12.17;61.70;99764.19;4941992;28;45389;-64
2022/11/04 04:55:32;;;;;;;;;1.00;1.00;;;;;12.16;61.64;99747.53;4941273;28;45266;-64
2022/11/04 04:57:58;;;;;;;;;0.00;0.00;;;;;12.16;61.82;99758.06;4941883;28;45266;-64
2022/11/04 05:00:24;;;;;;;;;3.00;0.25;;;;;12.17;61.69;99751.84;4941720;28;45607;-64
2022/11/04 05:02:50;;;;;;;;;2.00;1.00;;;;;12.18;61.64;99744.84;4940587;28;45241;-64
2022/11/04 05:05:15;;;;;;;;;1.00;1.00;;;;;12.17;61.76;99756.28;4941659;28;45474;-63
2022/11/04 05:07:41;;;;;;;;;0.00;0.00;;;;;12.19;61.78;99751.81;4942078;28;45160;-64
2022/11/04 05:10:09;;;;;;;;;1.00;0.00;;;;;12.20;61.70;99761.47;4941746;28;45288;-64
2022/11/04 05:15:19;;;;;;;;;0.00;0.00;;;;;12.16;61.81;99763.34;4941765;28;45393;-64
2022/11/04 05:17:45;;;;;;;;;1.75;1.00;;;;;12.17;61.67;99762.41;4940283;28;45542;-64
2022/11/04 05:20:11;;;;;;;;;1.00;0.50;;;;;12.17;61.87;99758.91;4941434;28;46031;-64
2022/11/04 05:22:36;;;;;;;;;2.00;1.00;;;;;12.13;61.71;99738.88;4941545;28;45502;-64
2022/11/04 05:25:02;;;;;;;;;1.75;1.75;;;;;12.15;61.67;99758.09;4941749;28;45304;-64
2022/11/04 05:27:28;;;;;;;;;1.75;0.00;;;;;12.18;61.64;99764.13;4941439;28;45741;-65
2022/11/04 05:29:53;;;;;;;;;0.75;0.25;;;;;12.16;61.71;99750.16;4941835;28;46411;-64
2022/11/04 05:32:18;;;;;;;;;0.00;0.00;;;;;12.21;61.82;99757.88;4941373;28;46109;-64
2022/11/04 05:34:43;;;;;;;;;1.25;1.25;;;;;12.22;61.64;99748.22;4941505;28;45385;-64
2022/11/04 05:37:09;;;;;;;;;5.75;4.75;;;;;12.24;61.52;99756.91;4941315;28;50764;-64
2022/11/04 05:39:34;;;;;;;;;1.00;1.00;;;;;12.24;61.20;99749.88;4941465;28;45472;-64
2022/11/04 05:41:59;;;;;;;;;2.00;0.75;;;;;12.15;61.72;99737.03;4940894;28;47085;-64
2022/11/04 05:44:25;;;;;;;;;2.50;2.00;;;;;12.24;61.73;99762.19;4941542;28;45405;-64
2022/11/04 05:46:50;;;;;;;;;2.00;0.00;;;;;12.25;61.60;99763.91;4941212;28;45220;-64
2022/11/04 05:49:16;;;;;;;;;1.00;1.00;;;;;12.27;61.65;99772.63;4940896;28;46295;-64
2022/11/04 05:51:42;;;;;;;;;2.25;0.75;;;;;12.28;61.74;99769.06;4941302;28;45275;-64
2022/11/04 05:54:08;;;;;;;;;1.00;1.00;;;;;12.28;61.59;99774.34;4941236;28;45210;-64
2022/11/04 05:56:33;;;;;;;;;0.00;0.00;;;;;12.27;61.47;99777.88;4940683;28;45441;-64
2022/11/04 05:58:59;;;;;;;;;1.00;0.00;;;;;12.25;61.46;99770.03;4939813;28;48428;-64
2022/11/04 06:01:38;;;;;;;;;1.00;1.00;;;;;12.25;61.56;99777.06;4941164;28;45249;-64
2022/11/04 06:04:04;;;;;;;;;1.00;1.00;;;;;12.26;61.69;99781.44;4941297;28;45239;-64
2022/11/04 06:06:33;;;;;;;;;1.50;1.00;;;;;12.24;61.76;99783.25;4940930;28;45180;-64
2022/11/04 06:08:59;;;;;;;;;2.50;1.25;;;;;12.22;61.90;99787.72;4943416;28;46132;-64
2022/11/04 06:11:26;;;;;;;;;2.25;2.00;;;;;12.24;61.75;99797.28;4944058;28;45567;-64
2022/11/04 06:13:54;;;;;;;;;2.50;1.00;;;;;12.25;61.70;99796.38;4944304;28;45354;-63
2022/11/04 06:16:19;;;;;;;;;2.25;1.50;;;;;12.25;61.51;99798.16;4944208;28;45338;-63
2022/11/04 06:18:44;;;;;;;;;4.25;1.00;;;;;12.27;61.51;99801.59;4943888;28;45242;-63
2022/11/04 06:21:13;;;;;;;;;7.00;3.50;;;;;12.26;61.52;99810.41;4944131;28;45204;-64
2022/11/04 06:23:42;;;;;;;;;2.00;1.00;;;;;12.25;61.65;99809.56;4944440;28;45424;-64
2022/11/04 06:26:09;;;;;;;;;3.75;2.75;;;;;12.27;61.74;99810.34;4943899;28;45279;-64
2022/11/04 06:28:34;;;;;;;;;4.75;3.50;;;;;12.24;61.69;99809.59;4943848;28;45195;-64
2022/11/04 06:31:03;;;;;;;;;1.75;1.75;;;;;12.21;61.81;99805.28;4943992;28;45249;-64
2022/11/04 06:33:29;;;;;;;;;3.00;3.00;;;;;12.23;61.70;99811.38;4944036;28;45275;-63
2022/11/04 06:36:02;;;;;;;;;3.25;2.25;;;;;12.24;61.77;99807.84;4943816;28;45306;-64
2022/11/04 06:38:30;;;;;;;;;3.00;2.50;;;;;12.23;61.84;99813.16;4943637;28;45348;-64
2022/11/04 06:40:57;;;;;;;;;1.75;1.75;;;;;12.22;61.61;99812.28;4943569;28;45365;-63
2022/11/04 06:43:22;;;;;;;;;16.75;13.00;;;;;12.24;61.87;99818.38;4943924;28;45365;-63
2022/11/04 06:45:55;;;;;;;;;11.00;9.50;;;;;12.26;61.69;99816.53;4943549;28;45829;-63
2022/11/04 06:48:20;;;;;;;;;2.25;2.00;;;;;12.27;61.69;99817.41;4943447;28;46373;-63
2022/11/04 06:50:46;;;;;;;;;2.75;1.50;;;;;12.26;61.54;99827.06;4943535;28;45338;-63
2022/11/04 06:53:11;;;;;;;;;1.25;1.25;;;;;12.27;61.83;99822.66;4943969;28;45298;-64
2022/11/04 06:55:36;;;;;;;;;3.00;1.50;;;;;12.27;61.66;99820.88;4943535;28;45445;-64
2022/11/04 06:58:02;;;;;;;;;3.50;2.00;;;;;12.27;61.64;99831.41;4943709;28;45414;-64
2022/11/04 07:00:27;;;;;;;;;3.50;2.00;;;;;12.30;61.55;99820.78;4928529;28;45898;-64
2022/11/04 07:02:52;;;;;;;;;9.50;7.50;;;;;12.25;61.70;99822.72;4927313;28;45676;-64
2022/11/04 07:05:18;;;;;;;;;51.75;40.25;;;;;12.29;61.67;99834.00;4939214;28;45400;-64
2022/11/04 07:07:43;;;;;;;;;1.00;1.00;;;;;12.30;61.62;99827.81;4939259;28;46909;-64
2022/11/04 07:10:09;;;;;;;;;3.25;0.50;;;;;12.26;61.86;99831.47;4939565;28;45946;-64
2022/11/04 07:12:34;;;;;;;;;2.75;1.00;;;;;12.27;61.38;99828.78;4929259;28;45385;-63
2022/11/04 07:14:59;;;;;;;;;6.00;3.25;;;;;12.30;62.02;99840.97;4939221;28;45537;-63
2022/11/04 07:17:25;;;;;;;;;3.75;2.75;;;;;12.29;61.63;99839.25;4938097;28;47964;-63
2022/11/04 07:19:50;;;;;;;;;4.25;3.50;;;;;12.30;61.66;99833.06;4938602;28;45541;-63
2022/11/04 07:22:15;;;;;;;;;6.50;4.00;;;;;12.32;61.40;99847.06;4937966;28;49507;-64
2022/11/04 07:24:41;;;;;;;;;8.50;4.25;;;;;12.32;61.46;99850.56;4939445;28;45508;-64
2022/11/04 07:27:06;;;;;;;;;7.25;4.50;;;;;12.30;61.50;99849.75;4939398;28;47023;-63
2022/11/04 07:29:32;;;;;;;;;8.25;5.25;;;;;12.33;61.57;99847.00;4939288;28;45403;-64
2022/11/04 07:31:57;;;;;;;;;8.75;5.25;;;;;12.34;61.64;99859.28;4940333;28;45545;-63
2022/11/04 07:34:23;;;;;;;;;6.75;5.00;;;;;12.34;61.59;99861.06;4941328;28;45443;-62
2022/11/04 07:36:48;;;;;;;;;7.25;7.00;;;;;12.34;61.60;99875.06;4941420;28;46483;-61
2022/11/04 07:39:13;;;;;;;;;6.00;4.50;;;;;12.33;61.56;99881.25;4942748;28;47237;-62
2022/11/04 07:41:39;;;;;;;;;7.00;5.75;;;;;12.34;61.70;99884.78;4941898;28;45432;-62
2022/11/04 07:44:04;;;;;;;;;4.25;3.25;;;;;12.35;61.48;99886.47;4942887;28;45453;-62
2022/11/04 07:46:31;;;;;;;;;2.25;2.00;;;;;12.35;61.41;99894.38;4942974;28;46099;-62
2022/11/04 07:48:59;;;;;;;;;21.00;17.25;;;;;12.37;61.34;99896.97;4941280;28;45381;-62
2022/11/04 07:51:25;;;;;;;;;14.50;12.25;;;;;12.38;61.64;99901.31;4942935;28;45264;-62
2022/11/04 07:53:51;;;;;;;;;2.75;1.00;;;;;12.40;61.46;99907.38;4942704;28;45495;-62
2022/11/04 07:56:17;;;;;;;;;3.75;2.75;;;;;12.42;61.35;99909.06;4942522;28;46286;-62
2022/11/04 07:58:43;;;;;;;;;8.25;5.75;;;;;12.43;61.29;99909.94;4942498;28;45298;-62
2022/11/04 08:01:15;;;;;;;;;6.00;2.75;;;;;12.44;61.27;99906.34;4942666;28;45354;-62
2022/11/04 08:03:41;;;;;;;;;3.00;2.00;;;;;12.45;61.28;99921.25;4942394;28;45496;-62
2022/11/04 08:06:08;;;;;;;;;2.00;2.00;;;;;12.47;61.24;99922.06;4942522;28;46185;-63
2022/11/04 08:08:33;;;;;;;;;5.75;2.50;;;;;12.49;61.57;99930.78;4942542;28;45398;-62
2022/11/04 08:11:03;;;;;;;;;6.25;4.75;;;;;12.50;61.09;99932.50;4942571;28;45571;-62
2022/11/04 08:13:30;;;;;;;;;2.25;1.25;;;;;12.51;61.11;99937.72;4942595;28;45362;-62
2022/11/04 08:15:56;;;;;;;;;18.00;11.75;;;;;12.52;61.19;99935.94;4942244;28;45238;-62
2022/11/04 08:18:21;;;;;;;;;4.00;1.00;;;;;12.52;61.25;99941.22;4942079;28;45286;-62
2022/11/04 08:20:51;;;;;;;;;2.00;2.00;;;;;12.52;61.36;99943.84;4942376;28;45277;-62
2022/11/04 08:23:17;;;;;;;;;4.00;1.00;;;;;12.49;61.09;99939.56;4942423;28;45453;-62
2022/11/04 08:25:43;;;;;;;;;1.25;1.25;;;;;12.53;61.16;99956.13;4941945;28;46309;-62
2022/11/04 08:28:11;;;;;;;;;2.75;2.00;;;;;12.54;61.17;99952.59;4941025;28;46058;-62
2022/11/04 08:30:37;;;;;;;;;6.25;0.75;;;;;12.55;61.04;99956.91;4941481;28;45307;-62
2022/11/04 08:33:04;;;;;;;;;1.00;1.00;;;;;12.56;60.92;99960.44;4942125;28;45205;-62
2022/11/04 08:35:30;;;;;;;;;2.50;1.00;;;;;12.60;60.80;99960.28;4942009;28;46349;-62
2022/11/04 08:37:55;;;;;;;;;3.00;2.75;;;;;12.61;60.96;99964.59;4941984;28;45294;-62
2022/11/04 08:40:20;;;;;;;;;1.75;0.75;;;;;12.64;61.06;99975.06;4942266;28;45344;-62
2022/11/04 08:42:46;;;;;;;;;1.00;1.00;;;;;12.67;60.97;99974.94;4942191;28;45322;-62
2022/11/04 08:45:11;;;;;;;;;2.00;1.00;;;;;12.71;61.04;99974.84;4941809;28;45418;-62
2022/11/04 08:47:37;;;;;;;;;1.75;1.00;;;;;12.73;60.97;99981.78;4941988;28;45302;-62
2022/11/04 08:50:03;;;;;;;;;4.25;1.25;;;;;12.77;60.51;99988.66;4941875;28;45460;-62
2022/11/04 08:52:28;;;;;;;;;1.25;0.50;;;;;12.77;60.51;99985.19;4940654;28;45297;-62
2022/11/04 08:54:53;;;;;;;;;2.25;2.00;;;;;12.80;60.74;99995.59;4941423;28;51574;-62
2022/11/04 08:57:19;;;;;;;;;1.75;1.75;;;;;12.78;60.45;99997.41;4941811;28;45270;-62
2022/11/04 08:59:44;;;;;;;;;4.00;4.00;;;;;12.79;60.30;99991.22;4941966;28;45521;-62
2022/11/04 09:02:13;;;;;;;;;1.00;0.00;;;;;12.83;60.74;100004.28;4941822;28;45289;-65
2022/11/04 09:04:39;;;;;;;;;4.00;2.50;;;;;12.84;60.61;100013.91;4941622;28;45531;-64
2022/11/04 09:07:05;;;;;;;;;1.00;1.00;;;;;12.87;60.50;100006.78;4941728;28;45369;-63
2022/11/04 09:09:31;;;;;;;;;1.00;1.00;;;;;12.91;60.74;100009.25;4941906;28;45478;-62
2022/11/04 09:11:56;;;;;;;;;3.50;2.00;;;;;12.93;60.45;100015.34;4940231;28;45432;-62
2022/11/04 09:14:22;;;;;;;;;4.50;1.75;;;;;12.94;60.64;100019.72;4941516;28;46179;-62
2022/11/04 09:16:48;;;;;;;;;2.25;2.00;;;;;12.96;60.28;100023.16;4941553;28;45406;-62
2022/11/04 09:19:13;;;;;;;;;2.50;1.00;;;;;12.98;60.16;100023.97;4941342;28;45342;-62
2022/11/04 09:21:39;;;;;;;;;1.00;1.00;;;;;13.03;60.26;100025.56;4940435;28;45512;-62
2022/11/04 09:24:06;;;;;;;;;3.25;0.50;;;;;13.03;60.14;100028.19;4940120;28;45823;-62
2022/11/04 09:26:31;;;;;;;;;1.00;1.00;;;;;13.07;60.38;100041.25;4941532;28;45239;-62
2022/11/04 09:28:58;;;;;;;;;2.25;1.75;;;;;13.09;60.28;100042.03;4941570;28;45245;-62
2022/11/04 09:31:24;;;;;;;;;3.00;1.00;;;;;13.13;59.72;100048.06;4941684;28;45405;-62
2022/11/04 09:33:50;;;;;;;;;1.75;1.75;;;;;13.14;59.91;100053.31;4940944;28;46380;-62
2022/11/04 09:36:15;;;;;;;;;0.00;0.00;;;;;13.15;60.12;100048.88;4941382;28;45339;-62
2022/11/04 09:38:41;;;;;;;;;2.00;0.25;;;;;13.16;60.10;100062.00;4941667;28;45429;-62
2022/11/04 09:41:17;;;;;;;;;2.00;0.25;;;;;13.18;60.04;100056.66;4941341;28;45485;-62
2022/11/04 09:43:52;;;;;;;;;0.25;0.00;;;;;13.20;59.63;100060.13;4944546;28;46431;-62
2022/11/04 09:46:19;;;;;;;;;0.75;0.75;;;;;13.23;59.89;100064.41;4944905;28;45262;-62
2022/11/04 09:48:49;;;;;;;;;3.00;3.00;;;;;13.26;59.58;100064.31;4942954;28;45346;-62
2022/11/04 09:51:17;;;;;;;;;10.50;5.25;;;;;13.28;59.87;100071.28;4943312;28;45387;-62
2022/11/04 09:53:50;;;;;;;;;1.75;1.00;;;;;13.33;59.77;100079.00;4943152;28;46567;-62
2022/11/04 09:56:19;;;;;;;;;2.00;2.00;;;;;13.37;59.69;100077.13;4943166;28;45418;-62
2022/11/04 09:58:45;;;;;;;;;1.00;1.00;;;;;13.41;59.58;100089.31;4944336;28;45442;-62
2022/11/04 10:01:27;;;;;;;;;1.00;1.00;;;;;13.45;59.43;100097.06;4944397;28;45532;-62
2022/11/04 10:04:14;;;;;;;;;2.25;1.75;;;;;13.49;60.20;100103.09;4944352;28;45440;-62
2022/11/04 10:06:54;;;;;;;;;2.50;1.00;;;;;13.54;59.51;100110.84;4944201;28;45320;-62
2022/11/04 10:09:33;;;;;;;;;3.00;2.00;;;;;13.56;59.91;100114.28;4943410;28;45473;-62
2022/11/04 10:12:29;;;;;;;;;1.50;0.50;;;;;13.59;59.38;100120.31;4944117;28;45479;-62
2022/11/04 10:15:13;;;;;;;;;2.00;1.00;;;;;13.61;59.72;100131.69;4943986;28;46317;-62
2022/11/04 10:18:16;;;;;;;;;2.00;2.00;;;;;13.63;59.35;100126.34;4938922;28;45370;-62
2022/11/04 10:21:08;;;;;;;;;3.25;2.00;;;;;13.65;59.71;100138.56;4944253;28;45488;-62
2022/11/04 10:23:43;;;;;;;;;1.50;1.50;;;;;13.65;59.50;100143.84;4944192;28;45498;-62
2022/11/04 10:26:22;;;;;;;;;1.75;1.75;;;;;13.69;59.71;100143.75;4943760;28;45480;-62
2022/11/04 10:28:59;;;;;;;;;3.00;2.00;;;;;13.72;59.39;100151.56;4943920;28;45306;-62
2022/11/04 10:31:24;;;;;;;;;1.00;1.00;;;;;13.72;59.13;100155.06;4944311;28;45340;-63
2022/11/04 10:33:59;;;;;;;;;2.00;2.00;;;;;13.74;59.09;100163.78;4943501;28;45326;-62
2022/11/04 10:36:25;;;;;;;;;2.25;2.25;;;;;13.75;59.70;100162.03;4943857;28;46445;-62
2022/11/04 10:38:55;;;;;;;;;2.00;2.00;;;;;13.79;59.46;100176.81;4943669;28;45184;-62
2022/11/04 10:41:23;;;;;;;;;2.50;2.50;;;;;13.80;59.48;100173.28;4942808;28;45577;-62
2022/11/04 10:44:24;;;;;;;;;4.25;2.75;;;;;13.82;59.55;100185.50;4943621;28;45493;-62
2022/11/04 10:47:03;;;;;;;;;4.50;2.50;;;;;13.86;59.17;100195.94;4939445;28;45329;-62
2022/11/04 10:49:47;;;;;;;;;7.00;6.00;;;;;13.87;59.36;100202.94;4943197;28;45254;-62
2022/11/04 10:52:13;;;;;;;;;2.00;2.00;;;;;13.88;59.53;100210.81;4943753;28;46416;-63
2022/11/04 10:54:40;;;;;;;;;6.00;4.25;;;;;13.91;59.53;100207.19;4942854;28;45650;-62
2022/11/04 10:57:05;;;;;;;;;5.25;4.75;;;;;13.92;59.07;100207.16;4943423;28;46001;-62
2022/11/04 10:59:55;;;;;;;;;3.00;3.00;;;;;13.93;59.30;100213.28;4942294;28;45266;-63
2022/11/04 11:02:36;;;;;;;;;4.75;3.00;;;;;13.97;59.02;100218.41;4940425;28;45335;-62
2022/11/04 11:05:16;;;;;;;;;4.25;2.75;;;;;14.00;59.00;100224.50;4943093;28;45429;-62
2022/11/04 11:07:43;;;;;;;;;4.00;3.00;;;;;14.02;58.85;100233.22;4943485;28;46797;-62
2022/11/04 11:10:26;;;;;;;;;4.25;4.00;;;;;14.05;59.03;100223.41;4943247;28;45260;-62
2022/11/04 11:13:01;;;;;;;;;7.25;5.00;;;;;14.07;59.20;100226.84;4943414;28;45361;-62
2022/11/04 11:15:31;;;;;;;;;4.25;4.00;;;;;14.16;58.82;100230.06;4943189;28;45587;-62
2022/11/04 11:18:02;;;;;;;;;5.00;2.00;;;;;14.20;59.03;100232.56;4942962;28;46357;-62
2022/11/04 11:20:27;;;;;;;;;2.75;2.75;;;;;14.28;59.04;100237.56;4943193;28;45283;-63
2022/11/04 11:22:53;;;;;;;;;2.75;2.75;;;;;14.39;58.85;100247.69;4943332;28;45333;-63
2022/11/04 11:25:24;;;;;;;;;3.25;3.25;;;;;14.47;58.65;100249.13;4943335;28;45238;-63
2022/11/04 11:27:52;;;;;;;;;2.50;2.00;;;;;14.55;58.77;100251.50;4943056;28;45989;-62
2022/11/04 11:30:25;;;;;;;;;3.00;2.50;;;;;14.68;58.83;100254.56;4943114;28;45321;-63
2022/11/04 11:32:59;;;;;;;;;5.00;3.00;;;;;14.78;58.79;100249.78;4942711;28;45373;-63
2022/11/04 11:35:30;;;;;;;;;3.25;3.00;;;;;14.88;58.70;100244.97;4943023;28;45486;-63
2022/11/04 11:37:56;;;;;;;;;2.00;1.50;;;;;14.98;58.39;100254.28;4943066;28;46271;-62
2022/11/04 11:40:36;;;;;;;;;1.50;1.50;;;;;15.02;58.26;100255.88;4941638;28;45873;-63
2022/11/04 11:43:03;;;;;;;;;1.50;0.50;;;;;15.16;58.14;100262.41;4943257;28;45396;-63
2022/11/04 11:45:30;;;;;;;;;0.00;0.00;;;;;15.27;58.43;100263.66;4942967;28;45567;-63
2022/11/04 11:47:56;;;;;;;;;4.25;4.00;;;;;15.39;58.08;100270.22;4942404;28;46695;-63
2022/11/04 11:50:33;;;;;;;;;2.50;1.50;;;;;15.53;57.83;100271.44;4942743;28;45252;-63
2022/11/04 11:53:16;;;;;;;;;5.50;5.50;;;;;15.67;57.90;100282.31;4942905;28;45234;-62
2022/11/04 11:55:54;;;;;;;;;5.00;4.25;;;;;15.77;58.12;100288.94;4942531;28;45396;-62
2022/11/04 11:58:37;;;;;;;;;1.50;1.00;;;;;15.87;57.85;100288.56;4942347;28;45434;-62
2022/11/04 12:01:07;;;;;;;;;4.50;4.50;;;;;15.93;57.76;100294.44;4942911;28;45172;-61
2022/11/04 12:03:42;;;;;;;;;10.00;6.75;;;;;16.01;57.99;100301.22;4942346;28;45392;-61
2022/11/04 12:06:14;;;;;;;;;3.00;2.25;;;;;16.05;57.66;100301.00;4941378;28;45472;-61
2022/11/04 12:08:51;;;;;;;;;3.00;1.75;;;;;16.16;57.56;100312.94;4942540;28;46465;-62
2022/11/04 12:11:49;;;;;;;;;3.75;2.25;;;;;16.27;57.48;100315.97;4942188;28;45349;-62
2022/11/04 12:14:35;;;;;;;;;2.50;2.00;;;;;16.37;57.24;100313.75;4942623;28;45255;-62
2022/11/04 12:17:23;;;;;;;;;2.00;2.00;;;;;16.47;57.49;100330.13;4942406;28;45376;-62